Time;durP1;ratioP1;P1;durP2;ratioP2;P2;SDS_P1;SDS_P2;PMS_P1;PMS_P2;Temp;Humidity;BMP_temperature;BMP_pressure;BME280_temperature;BME280_humidity;BME280_pressure;Samples;Min_cycle;Max_cycle;Signal;HPM_P1;HPM_P2
2021/01/13 10:41:57;;;;;;;13.38;10.75;;;;;;;-3.05;82.59;99153.23;1788504;79;28162;-72
2021/01/13 10:44:28;;;;;;;14.95;11.18;;;;;;;-3.08;82.88;99145.64;1775781;80;21616;-73
2021/01/13 10:47:08;;;;;;;14.03;11.03;;;;;;;-3.03;83.12;99142.59;1776314;80;22227;-74
2021/01/13 10:49:48;;;;;;;14.55;11.33;;;;;;;-2.96;83.16;99141.64;1775251;80;21109;-68
2021/01/13 10:52:21;;;;;;;14.28;10.15;;;;;;;-2.90;83.01;99133.91;1775639;80;21044;-68
2021/01/13 10:54:52;;;;;;;12.58;9.73;;;;;;;-2.86;82.79;99121.52;1796961;78;21076;-71
2021/01/13 10:57:31;;;;;;;13.65;10.43;;;;;;;-2.81;83.06;99112.53;1816735;78;21021;-67
2021/01/13 11:00:11;;;;;;;13.62;10.88;;;;;;;-2.72;83.26;99111.92;1787126;79;22162;-70
2021/01/13 11:02:40;;;;;;;14.93;9.75;;;;;;;-2.64;83.41;99109.67;1802201;78;21068;-70
2021/01/13 11:05:11;;;;;;;11.90;9.48;;;;;;;-2.54;83.58;99111.20;1787163;78;20989;-70
2021/01/13 11:07:43;;;;;;;15.48;12.18;;;;;;;-2.48;83.29;99111.09;1806738;78;21361;-71
2021/01/13 11:10:13;;;;;;;13.55;9.78;;;;;;;-2.41;83.18;99107.13;1802701;78;21488;-72
2021/01/13 11:12:41;;;;;;;13.88;10.80;;;;;;;-2.35;82.94;99093.40;1787122;78;21639;-69
2021/01/13 11:15:11;;;;;;;17.55;10.85;;;;;;;-2.28;82.68;99086.48;1747857;82;21006;-72
2021/01/13 11:17:40;;;;;;;12.40;9.93;;;;;;;-2.23;82.57;99081.70;1798507;78;20986;-71
2021/01/13 11:20:09;;;;;;;11.78;9.28;;;;;;;-2.16;82.46;99081.98;1817438;78;21033;-71
2021/01/13 11:22:48;;;;;;;11.48;9.43;;;;;;;-2.10;82.21;99079.75;1748669;82;21074;-71
2021/01/13 11:25:37;;;;;;;11.88;9.53;;;;;;;-2.06;82.12;99074.99;1818358;78;21203;-72
2021/01/13 11:28:13;;;;;;;17.57;10.20;;;;;;;-2.05;81.80;99078.78;1748699;82;21617;-72
2021/01/13 11:30:45;;;;;;;11.85;10.28;;;;;;;-2.04;82.53;99074.09;1801199;78;21008;-71
2021/01/13 11:33:15;;;;;;;13.40;10.20;;;;;;;-1.99;81.96;99068.86;1787205;80;21080;-71
2021/01/13 11:35:46;;;;;;;12.33;9.78;;;;;;;-1.98;81.58;99070.55;1814807;78;21037;-72
2021/01/13 11:38:43;;;;;;;10.85;9.38;;;;;;;-1.99;81.37;99062.92;1819524;78;21328;-73
2021/01/13 11:41:33;;;;;;;11.25;9.58;;;;;;;-2.03;81.31;99064.30;1814610;78;21428;-72
2021/01/13 11:44:37;;;;;;;10.03;8.85;;;;;;;-2.02;81.69;99063.86;1810803;79;21215;-70
2021/01/13 11:47:27;;;;;;;10.78;8.88;;;;;;;-2.00;81.23;99058.73;1780861;79;21096;-72
2021/01/13 11:49:59;;;;;;;11.57;9.45;;;;;;;-1.99;81.47;99055.27;1778987;80;21062;-71
2021/01/13 11:52:28;;;;;;;10.30;8.68;;;;;;;-1.99;81.46;99054.00;1778591;80;21266;-71
2021/01/13 11:54:56;;;;;;;10.53;9.28;;;;;;;-1.97;81.66;99047.98;1778325;80;21689;-73
2021/01/13 11:57:34;;;;;;;10.20;9.10;;;;;;;-1.97;81.21;99045.44;1778691;80;20918;-69
2021/01/13 12:00:27;;;;;;;9.73;8.58;;;;;;;-1.99;81.26;99042.08;1778601;80;20973;-72
2021/01/13 12:02:57;;;;;;;13.25;10.25;;;;;;;-1.98;81.70;99042.48;1779913;79;21069;-75
2021/01/13 12:05:37;;;;;;;10.53;8.73;;;;;;;-1.95;81.97;99041.14;1781298;80;22028;-71
2021/01/13 12:08:10;;;;;;;11.95;9.95;;;;;;;-1.89;81.91;99044.00;1780272;78;21163;-71
2021/01/13 12:10:51;;;;;;;11.18;8.85;;;;;;;-1.85;82.07;99034.14;1781386;80;21104;-71
2021/01/13 12:13:30;;;;;;;12.03;8.48;;;;;;;-1.81;81.73;99032.77;1781572;80;21460;-71
2021/01/13 12:16:01;;;;;;;11.78;9.63;;;;;;;-1.81;81.56;99029.38;1781846;80;20950;-71
2021/01/13 12:18:33;;;;;;;11.85;9.03;;;;;;;-1.84;81.64;99024.34;1781872;80;21279;-71
2021/01/13 12:21:16;;;;;;;11.90;9.43;;;;;;;-1.86;81.73;99017.98;1782843;79;21113;-72
2021/01/13 12:23:46;;;;;;;19.15;9.63;;;;;;;-1.86;81.96;99014.59;1790556;79;21719;-69
2021/01/13 12:26:24;;;;;;;11.85;9.33;;;;;;;-1.85;82.04;99008.63;1780313;79;21583;-73
2021/01/13 12:29:05;;;;;;;11.75;9.68;;;;;;;-1.87;81.97;99005.27;1784281;79;21030;-68
2021/01/13 12:31:47;;;;;;;13.03;9.45;;;;;;;-1.89;82.02;99002.75;1778341;80;22280;-76
2021/01/13 12:34:22;;;;;;;9.88;8.65;;;;;;;-1.91;82.37;98999.83;1783382;79;21058;-71
2021/01/13 12:36:52;;;;;;;10.88;9.13;;;;;;;-1.93;82.31;98996.03;1782298;80;21041;-71
2021/01/13 12:39:27;;;;;;;10.50;8.60;;;;;;;-1.95;82.37;98991.41;1784199;80;21591;-72
2021/01/13 12:41:58;;;;;;;;;;;;;;;-1.98;82.96;98976.59;1766149;80;21683;-70
2021/01/13 12:44:27;;;;;;;13.13;9.88;;;;;;;-2.03;82.42;98990.76;1756765;81;21997;-69
2021/01/13 12:46:59;;;;;;;11.53;9.40;;;;;;;-2.12;82.39;98971.83;1757000;81;21143;-75
2021/01/13 12:49:27;;;;;;;11.43;9.88;;;;;;;-2.16;82.70;98968.94;1757328;81;20973;-74
2021/01/13 12:51:57;;;;;;;12.03;9.63;;;;;;;-2.19;82.63;98965.17;1757129;81;21124;-71
2021/01/13 12:54:31;;;;;;;11.08;9.40;;;;;;;-2.20;82.55;98967.33;1752770;81;21094;-73
2021/01/13 12:57:00;;;;;;;12.88;10.08;;;;;;;-2.21;82.69;98979.67;1746541;81;21254;-74
2021/01/13 12:59:30;;;;;;;11.45;9.63;;;;;;;-2.20;82.64;98979.64;1746507;81;21094;-76
2021/01/13 13:01:58;;;;;;;11.20;9.38;;;;;;;-2.16;82.65;98973.60;1746400;81;21110;-71
2021/01/13 13:04:28;;;;;;;13.62;10.28;;;;;;;-2.17;82.66;98966.83;1745936;81;21003;-74
2021/01/13 13:06:57;;;;;;;12.93;10.32;;;;;;;-2.15;82.86;98973.17;1746583;81;21091;-69
2021/01/13 13:09:26;;;;;;;12.55;9.90;;;;;;;-2.12;82.90;98969.28;1763055;80;21287;-78
2021/01/13 13:11:56;;;;;;;11.45;10.05;;;;;;;-2.10;83.04;98964.55;1759068;80;21068;-74
2021/01/13 13:14:24;;;;;;;15.68;11.03;;;;;;;-2.07;82.93;98964.48;1771655;80;20950;-70
2021/01/13 13:16:53;;;;;;;12.73;10.20;;;;;;;-2.08;82.60;98955.15;1756084;80;21451;-69
2021/01/13 13:19:22;;;;;;;12.88;10.13;;;;;;;-2.08;82.76;98951.33;1746542;82;21380;-70
2021/01/13 13:21:54;;;;;;;11.78;9.80;;;;;;;-2.08;82.83;98939.84;1746396;82;21321;-69
2021/01/13 13:24:23;;;;;;;14.33;10.32;;;;;;;-2.08;82.63;98930.92;1762346;80;21017;-72
2021/01/13 13:26:53;;;;;;;13.25;11.10;;;;;;;-2.10;82.64;98928.84;1718772;83;21062;-73
2021/01/13 13:29:21;;;;;;;12.93;10.35;;;;;;;-2.14;82.44;98930.22;1692007;83;21773;-72
2021/01/13 13:31:50;;;;;;;14.33;11.20;;;;;;;-2.20;82.41;98926.09;1717189;83;21204;-72
2021/01/13 13:34:19;;;;;;;13.20;10.98;;;;;;;-2.22;82.80;98922.73;1721431;82;21211;-71
2021/01/13 13:36:48;;;;;;;13.32;10.38;;;;;;;-2.23;82.73;98915.95;1722850;83;21029;-72
2021/01/13 13:39:21;;;;;;;14.47;10.10;;;;;;;-2.23;82.61;98912.13;1719064;82;21064;-71
2021/01/13 13:41:51;;;;;;;13.60;10.58;;;;;;;-2.26;82.58;98907.10;1734424;81;21069;-68
2021/01/13 13:44:20;;;;;;;15.30;11.20;;;;;;;-2.28;82.50;98909.28;1778107;80;22304;-71
2021/01/13 13:46:49;;;;;;;14.23;11.33;;;;;;;-2.35;82.48;98906.02;1778616;80;21201;-70
2021/01/13 13:49:20;;;;;;;14.80;11.33;;;;;;;-2.39;82.81;98901.42;1777918;80;21005;-70
2021/01/13 13:51:50;;;;;;;14.38;10.63;;;;;;;-2.40;82.81;98898.94;1778568;80;20985;-67
2021/01/13 13:54:18;;;;;;;14.15;10.98;;;;;;;-2.42;82.25;98910.45;1778031;80;21016;-71
2021/01/13 13:56:54;;;;;;;12.85;10.05;;;;;;;-2.49;81.91;98906.78;1778602;80;21042;-68
2021/01/13 13:59:24;;;;;;;13.13;10.10;;;;;;;-2.52;81.90;98918.31;1758734;80;21180;-68
2021/01/13 14:01:52;;;;;;;13.50;10.32;;;;;;;-2.59;81.74;98902.31;1778435;80;21021;-72
2021/01/13 14:04:21;;;;;;;13.78;10.10;;;;;;;-2.64;82.00;98899.45;1778473;80;21013;-74
2021/01/13 14:06:49;;;;;;;11.75;9.95;;;;;;;-2.72;82.12;98897.91;1779676;78;20898;-72
2021/01/13 14:09:18;;;;;;;12.03;9.70;;;;;;;-2.75;82.43;98901.78;1780875;80;20998;-68
2021/01/13 14:11:46;;;;;;;10.05;8.65;;;;;;;-2.77;82.19;98896.31;1781861;80;21452;-73
2021/01/13 14:14:16;;;;;;;11.38;9.35;;;;;;;-2.79;82.06;98892.52;1780622;80;21081;-70
2021/01/13 14:16:47;;;;;;;12.75;9.13;;;;;;;-2.83;81.95;98896.03;1783506;79;21541;-71
2021/01/13 14:19:15;;;;;;;9.90;8.75;;;;;;;-2.86;81.80;98882.09;1795597;79;21049;-70
2021/01/13 14:21:43;;;;;;;11.97;9.30;;;;;;;-2.90;81.63;98879.20;1809690;79;21009;-74
2021/01/13 14:24:12;;;;;;;9.43;7.97;;;;;;;-2.96;81.68;98882.30;1809685;79;21786;-69
2021/01/13 14:26:41;;;;;;;9.50;8.35;;;;;;;-3.00;81.66;98887.88;1809586;79;21642;-74
2021/01/13 14:29:09;;;;;;;11.25;8.83;;;;;;;-3.03;81.72;98885.39;1810197;79;21599;-70
2021/01/13 14:31:38;;;;;;;11.15;8.95;;;;;;;-3.05;81.75;98892.22;1798592;79;21069;-71
2021/01/13 14:34:07;;;;;;;10.82;8.45;;;;;;;-3.04;81.80;98888.81;1753462;81;21671;-69
2021/01/13 14:36:35;;;;;;;9.83;8.28;;;;;;;-3.02;81.74;98887.91;1783398;79;21206;-69
2021/01/13 14:39:04;;;;;;;9.73;8.35;;;;;;;-3.02;81.58;98887.91;1791698;79;21570;-69
2021/01/13 14:41:32;;;;;;;10.93;8.88;;;;;;;-3.02;81.58;98881.55;1791924;79;21600;-70
2021/01/13 14:44:01;;;;;;;11.03;8.73;;;;;;;-3.03;81.66;98878.59;1732533;81;21037;-70
2021/01/13 14:46:33;;;;;;;11.38;9.33;;;;;;;-3.04;81.34;98878.19;1794136;78;20930;-70
2021/01/13 14:49:02;;;;;;;12.50;9.53;;;;;;;-3.05;81.51;98876.52;1802770;78;21374;-69
2021/01/13 14:51:31;;;;;;;10.72;8.65;;;;;;;-3.05;81.27;98869.31;1786683;80;21620;-69
2021/01/13 14:54:00;;;;;;;13.13;9.05;;;;;;;-3.07;81.22;98878.25;1786025;78;21602;-69
2021/01/13 14:56:34;;;;;;;9.73;8.23;;;;;;;-3.07;81.16;98879.52;1790423;78;21048;-69
2021/01/13 14:59:03;;;;;;;10.15;8.95;;;;;;;-3.08;81.02;98873.19;1785361;80;21087;-70
2021/01/13 15:01:32;;;;;;;11.15;9.78;;;;;;;-3.11;81.07;98868.99;1786435;80;21792;-69
2021/01/13 15:04:00;;;;;;;16.25;11.08;;;;;;;-3.11;81.14;98870.70;1786635;80;21076;-71
2021/01/13 15:06:30;;;;;;;13.60;9.93;;;;;;;-3.13;81.30;98863.52;1786865;80;20949;-70
2021/01/13 15:08:59;;;;;;;11.68;9.88;;;;;;;-3.10;81.65;98858.37;1787300;80;20936;-71
2021/01/13 15:11:30;;;;;;;12.68;9.55;;;;;;;-3.08;81.36;98861.73;1788008;78;21041;-70
2021/01/13 15:13:58;;;;;;;11.78;9.43;;;;;;;-3.08;81.37;98857.47;1799057;78;22068;-70
2021/01/13 15:16:26;;;;;;;14.80;11.45;;;;;;;-3.08;81.17;98865.55;1785915;80;21053;-70
2021/01/13 15:18:55;;;;;;;12.88;9.08;;;;;;;-3.09;81.30;98866.41;1786648;78;20993;-68
2021/01/13 15:21:25;;;;;;;11.43;8.65;;;;;;;-3.08;80.98;98857.91;1786430;80;21041;-69
2021/01/13 15:23:53;;;;;;;10.32;7.95;;;;;;;-3.10;80.36;98863.03;1785944;80;21555;-69
2021/01/13 15:26:22;;;;;;;9.18;7.42;;;;;;;-3.14;79.98;98860.58;1786393;79;21193;-70
2021/01/13 15:28:51;;;;;;;8.40;7.20;;;;;;;-3.21;79.98;98856.50;1800954;78;21045;-70
2021/01/13 15:31:19;;;;;;;14.20;9.43;;;;;;;-3.24;80.02;98866.73;1786808;80;21625;-72
2021/01/13 15:33:47;;;;;;;8.55;7.25;;;;;;;-3.26;80.12;98862.11;1786040;78;21022;-71
2021/01/13 15:36:16;;;;;;;9.80;7.47;;;;;;;-3.27;80.03;98861.70;1785833;80;21054;-70
2021/01/13 15:38:44;;;;;;;10.20;6.92;;;;;;;-3.34;80.11;98856.32;1786050;80;21365;-70
2021/01/13 15:41:13;;;;;;;10.75;7.83;;;;;;;-3.42;80.17;98860.28;1785948;80;21078;-70
2021/01/13 15:43:41;;;;;;;7.67;6.85;;;;;;;-3.48;80.54;98854.02;1786109;80;21384;-70
2021/01/13 15:46:10;;;;;;;9.23;7.50;;;;;;;-3.51;80.84;98863.83;1786881;80;20928;-71
2021/01/13 15:48:39;;;;;;;10.00;8.10;;;;;;;-3.56;81.20;98864.34;1787268;80;20935;-70
2021/01/13 15:51:11;;;;;;;10.45;7.50;;;;;;;-3.58;81.47;98868.61;1787542;80;21604;-72
2021/01/13 15:53:43;;;;;;;8.43;6.65;;;;;;;-3.59;81.49;98874.56;1787485;80;21482;-70
2021/01/13 15:56:12;;;;;;;9.00;6.85;;;;;;;-3.57;81.64;98866.91;1787507;80;20951;-69
2021/01/13 15:58:49;;;;;;;8.83;6.75;;;;;;;-3.59;81.53;98854.22;1787001;80;21026;-69
2021/01/13 16:01:18;;;;;;;8.88;7.35;;;;;;;-3.59;81.44;98848.29;1776313;80;21038;-69
2021/01/13 16:03:48;;;;;;;8.40;7.08;;;;;;;-3.61;81.39;98848.34;1787400;80;21202;-69
2021/01/13 16:06:17;;;;;;;8.15;7.25;;;;;;;-3.60;81.55;98846.64;1787379;80;21010;-69
2021/01/13 16:08:46;;;;;;;10.55;7.70;;;;;;;-3.60;81.45;98845.38;1787367;80;20963;-69
2021/01/13 16:11:14;;;;;;;9.38;7.87;;;;;;;-3.60;81.32;98849.19;1787406;80;21030;-69
2021/01/13 16:13:45;;;;;;;8.53;7.60;;;;;;;-3.61;81.52;98854.70;1787438;80;21493;-70
2021/01/13 16:16:16;;;;;;;8.65;7.40;;;;;;;-3.59;81.69;98855.48;1787502;80;22172;-68
2021/01/13 16:18:44;;;;;;;9.38;7.92;;;;;;;-3.56;81.70;98855.87;1787356;80;21037;-70
2021/01/13 16:21:13;;;;;;;10.98;7.50;;;;;;;-3.55;81.84;98848.64;1787458;80;20940;-70
2021/01/13 16:23:42;;;;;;;9.80;8.25;;;;;;;-3.53;81.94;98852.00;1787414;80;20939;-70
2021/01/13 16:26:11;;;;;;;11.28;8.80;;;;;;;-3.50;82.00;98848.97;1787469;80;21021;-70
2021/01/13 16:28:41;;;;;;;10.20;8.10;;;;;;;-3.47;82.00;98849.34;1787479;80;21205;-69
2021/01/13 16:31:11;;;;;;;11.12;8.63;;;;;;;-3.44;81.96;98848.02;1787463;80;20955;-70
2021/01/13 16:33:43;;;;;;;10.25;7.95;;;;;;;-3.43;81.99;98850.53;1787515;80;20927;-71
2021/01/13 16:36:18;;;;;;;12.25;7.62;;;;;;;-3.41;81.81;98847.95;1787479;80;21395;-70
2021/01/13 16:38:47;;;;;;;8.78;7.55;;;;;;;-3.40;81.66;98840.30;1787591;80;21461;-71
2021/01/13 16:41:15;;;;;;;8.23;6.78;;;;;;;-3.39;81.52;98848.34;1787426;80;21778;-66
2021/01/13 16:43:45;;;;;;;13.75;7.67;;;;;;;-3.40;81.57;98845.82;1792344;80;21529;-66
2021/01/13 16:46:15;;;;;;;8.23;6.75;;;;;;;-3.44;81.30;98841.22;1740781;80;21014;-68
2021/01/13 16:48:46;;;;;;;11.48;8.25;;;;;;;-3.46;80.42;98839.14;1793004;80;21986;-65
2021/01/13 16:51:15;;;;;;;9.08;7.83;;;;;;;-3.52;80.49;98834.59;1793117;80;21508;-65
2021/01/13 16:53:44;;;;;;;9.63;7.55;;;;;;;-3.56;80.38;98836.78;1793033;80;21205;-65
2021/01/13 16:56:15;;;;;;;10.18;7.83;;;;;;;-3.64;80.60;98836.95;1793029;80;20966;-66
2021/01/13 16:58:45;;;;;;;12.25;8.48;;;;;;;-3.67;81.31;98833.19;1793059;80;21493;-64
2021/01/13 17:01:13;;;;;;;10.18;8.53;;;;;;;-3.64;81.22;98838.23;1793061;80;21502;-65
2021/01/13 17:03:41;;;;;;;10.70;8.78;;;;;;;-3.65;81.04;98829.34;1793014;80;21579;-65
2021/01/13 17:06:11;;;;;;;11.22;8.63;;;;;;;-3.66;80.93;98833.59;1793051;80;22096;-64
2021/01/13 17:08:40;;;;;;;14.28;8.88;;;;;;;-3.66;80.81;98831.05;1792921;80;20955;-66
2021/01/13 17:11:09;;;;;;;16.12;11.20;;;;;;;-3.69;80.49;98829.84;1793024;80;20947;-65
2021/01/13 17:13:38;;;;;;;9.45;7.67;;;;;;;-3.73;80.23;98830.75;1793075;80;20966;-66
2021/01/13 17:16:07;;;;;;;12.07;9.30;;;;;;;-3.77;80.02;98826.59;1793050;80;21564;-65
2021/01/13 17:18:37;;;;;;;10.82;8.15;;;;;;;-3.83;80.04;98832.61;1793005;80;21197;-65
2021/01/13 17:21:07;;;;;;;9.08;8.05;;;;;;;-3.88;79.86;98827.20;1793031;80;21042;-65
2021/01/13 17:23:35;;;;;;;9.18;7.20;;;;;;;-3.93;80.20;98828.55;1793051;80;21469;-65
2021/01/13 17:26:05;;;;;;;11.18;7.53;;;;;;;-3.95;80.12;98827.73;1793011;80;20987;-65
2021/01/13 17:28:34;;;;;;;11.00;7.47;;;;;;;-3.99;79.92;98823.99;1793013;80;20987;-65
2021/01/13 17:31:03;;;;;;;9.83;7.75;;;;;;;-4.01;79.70;98825.75;1793110;80;21204;-64
2021/01/13 17:33:31;;;;;;;13.72;8.33;;;;;;;-4.05;79.39;98827.08;1792961;80;20943;-65
2021/01/13 17:36:02;;;;;;;11.97;8.20;;;;;;;-4.09;79.30;98823.34;1792974;80;21053;-65
2021/01/13 17:38:30;;;;;;;11.85;8.25;;;;;;;-4.10;79.29;98826.31;1792995;80;20935;-64
2021/01/13 17:40:59;;;;;;;12.53;8.28;;;;;;;-4.11;79.21;98820.81;1792973;80;21619;-64
2021/01/13 17:43:28;;;;;;;11.88;7.65;;;;;;;-4.11;79.12;98817.44;1734198;80;21400;-64
2021/01/13 17:45:58;;;;;;;11.08;8.05;;;;;;;-4.11;79.22;98814.89;1779433;80;21613;-65
2021/01/13 17:48:26;;;;;;;11.33;8.00;;;;;;;-4.10;79.46;98814.88;1779410;80;21130;-64
2021/01/13 17:50:55;;;;;;;9.10;7.72;;;;;;;-4.07;79.44;98817.80;1779355;80;21939;-65
2021/01/13 17:53:27;;;;;;;10.32;8.60;;;;;;;-4.05;79.26;98814.36;1779391;80;21529;-66
2021/01/13 17:55:59;;;;;;;11.78;8.55;;;;;;;-4.05;79.24;98818.61;1779525;80;21403;-65
2021/01/13 17:58:28;;;;;;;11.93;8.13;;;;;;;-4.06;79.33;98821.58;1779430;80;20964;-65
2021/01/13 18:00:56;;;;;;;13.83;8.45;;;;;;;-4.07;79.14;98817.36;1779292;80;21442;-65
2021/01/13 18:03:26;;;;;;;10.32;7.80;;;;;;;-4.13;78.93;98817.46;1779357;80;21592;-64
2021/01/13 18:05:57;;;;;;;10.90;7.78;;;;;;;-4.18;78.92;98817.13;1779392;80;21042;-65
2021/01/13 18:08:26;;;;;;;9.33;7.67;;;;;;;-4.27;78.94;98817.27;1779378;80;21454;-65
2021/01/13 18:10:55;;;;;;;10.20;7.70;;;;;;;-4.34;79.07;98813.98;1779434;80;21607;-65
2021/01/13 18:13:24;;;;;;;12.05;8.60;;;;;;;-4.39;79.50;98819.56;1779452;80;21505;-64
2021/01/13 18:15:54;;;;;;;11.12;8.60;;;;;;;-4.39;79.64;98806.86;1779370;80;21502;-64
2021/01/13 18:18:22;;;;;;;11.30;8.13;;;;;;;-4.40;79.35;98802.67;1779542;80;21339;-65
2021/01/13 18:20:51;;;;;;;9.38;7.33;;;;;;;-4.45;79.01;98804.45;1779383;80;22146;-65
2021/01/13 18:23:24;;;;;;;10.63;7.90;;;;;;;-4.49;78.95;98809.16;1778759;80;21660;-67
2021/01/13 18:25:50;;;;;;;9.83;7.40;;;;;;;-4.52;78.58;98803.70;1778473;80;21034;-67
2021/01/13 18:28:19;;;;;;;10.05;7.40;;;;;;;-4.54;78.37;98805.85;1778582;80;21655;-67
2021/01/13 18:30:48;;;;;;;10.85;8.08;;;;;;;-4.57;78.41;98803.35;1778768;80;21694;-65
2021/01/13 18:33:16;;;;;;;12.82;8.83;;;;;;;-4.61;78.28;98804.26;1778710;80;22177;-65
2021/01/13 18:35:45;;;;;;;11.85;8.88;;;;;;;-4.64;78.14;98802.60;1778701;80;21643;-65
2021/01/13 18:38:13;;;;;;;13.45;8.63;;;;;;;-4.70;78.24;98807.34;1778661;80;21636;-65
2021/01/13 18:40:42;;;;;;;13.58;9.10;;;;;;;-4.73;78.42;98808.65;1779450;80;21476;-64
2021/01/13 18:43:12;;;;;;;14.03;8.60;;;;;;;-4.74;78.29;98807.40;1784356;80;21489;-64
2021/01/13 18:45:43;;;;;;;11.83;8.50;;;;;;;-4.78;78.30;98814.65;1793004;80;21249;-64
2021/01/13 18:48:13;;;;;;;12.78;8.68;;;;;;;-4.83;78.47;98805.02;1792886;80;20951;-64
2021/01/13 18:50:43;;;;;;;17.17;11.22;;;;;;;-4.86;78.35;98802.09;1792911;80;21525;-65
2021/01/13 18:53:12;;;;;;;16.45;11.73;;;;;;;-4.91;78.34;98800.05;1792981;80;20954;-65
2021/01/13 18:55:41;;;;;;;16.70;11.80;;;;;;;-4.95;78.37;98801.38;1792984;80;21457;-68
2021/01/13 18:58:09;;;;;;;15.95;10.15;;;;;;;-4.99;78.30;98801.00;1792899;80;22162;-66
2021/01/13 19:00:38;;;;;;;17.48;11.05;;;;;;;-5.05;78.52;98795.58;1792927;80;21617;-64
2021/01/13 19:03:07;;;;;;;14.10;8.65;;;;;;;-5.07;78.31;98801.09;1793128;80;21551;-64
2021/01/13 19:05:35;;;;;;;14.45;10.00;;;;;;;-5.10;77.96;98797.33;1793073;80;21599;-65
2021/01/13 19:08:05;;;;;;;13.30;9.73;;;;;;;-5.17;77.56;98796.99;1793181;80;21528;-65
2021/01/13 19:10:33;;;;;;;16.57;9.95;;;;;;;-5.25;77.50;98798.81;1793177;80;21544;-65
2021/01/13 19:13:03;;;;;;;16.42;10.35;;;;;;;-5.31;77.49;98798.46;1793048;80;21473;-66
2021/01/13 19:15:31;;;;;;;16.57;11.10;;;;;;;-5.36;77.25;98805.28;1793203;80;21477;-66
2021/01/13 19:17:59;;;;;;;12.98;9.48;;;;;;;-5.39;77.27;98812.50;1793286;80;22261;-65
2021/01/13 19:20:28;;;;;;;12.55;9.13;;;;;;;-5.42;77.19;98802.39;1793163;80;21591;-65
2021/01/13 19:22:59;;;;;;;20.30;10.72;;;;;;;-5.46;76.97;98802.44;1765112;80;22253;-65
2021/01/13 19:25:29;;;;;;;15.60;11.43;;;;;;;-5.48;76.88;98802.45;1792741;80;21532;-65
2021/01/13 19:28:00;;;;;;;16.42;11.68;;;;;;;-5.52;76.73;98797.00;1793184;80;21564;-66
2021/01/13 19:30:28;;;;;;;17.23;11.80;;;;;;;-5.54;76.69;98801.68;1793130;80;21554;-66
2021/01/13 19:32:56;;;;;;;15.63;11.12;;;;;;;-5.57;76.67;98800.45;1793120;80;21548;-65
2021/01/13 19:35:25;;;;;;;12.98;9.33;;;;;;;-5.58;76.89;98809.75;1793099;80;21965;-65
2021/01/13 19:37:55;;;;;;;18.32;11.30;;;;;;;-5.61;76.66;98808.55;1793025;80;21485;-65
2021/01/13 19:40:25;;;;;;;30.08;16.02;;;;;;;-5.65;76.68;98801.83;1793237;80;20944;-65
2021/01/13 19:42:58;;;;;;;28.50;16.97;;;;;;;-5.64;76.66;98810.27;1786955;80;21034;-65
2021/01/13 19:45:27;;;;;;;36.13;19.75;;;;;;;-5.65;76.65;98808.16;1745845;82;21589;-65
2021/01/13 19:47:58;;;;;;;31.60;17.17;;;;;;;-5.64;76.55;98814.91;1745718;82;21588;-65
2021/01/13 19:50:27;;;;;;;35.05;19.57;;;;;;;-5.64;76.47;98807.31;1745692;81;21035;-65
2021/01/13 19:52:58;;;;;;;25.62;16.00;;;;;;;-5.63;76.40;98809.41;1745698;82;21493;-66
2021/01/13 19:55:26;;;;;;;21.15;13.88;;;;;;;-5.63;76.24;98811.52;1745758;82;21047;-66
2021/01/13 19:57:55;;;;;;;19.35;12.25;;;;;;;-5.65;76.05;98811.13;1745843;82;21272;-66
2021/01/13 20:00:24;;;;;;;16.17;9.98;;;;;;;-5.66;76.10;98811.55;1745813;82;22654;-66
2021/01/13 20:02:52;;;;;;;28.50;16.15;;;;;;;-5.65;76.07;98804.79;1745625;82;21526;-66
2021/01/13 20:05:22;;;;;;;33.55;19.55;;;;;;;-5.68;75.79;98806.93;1745789;82;20940;-66
2021/01/13 20:07:51;;;;;;;34.30;18.35;;;;;;;-5.69;75.81;98799.34;1745705;82;21561;-66
2021/01/13 20:10:23;;;;;;;37.65;18.50;;;;;;;-5.69;75.79;98798.07;1745707;82;20995;-66
2021/01/13 20:12:54;;;;;;;37.98;18.98;;;;;;;-5.69;75.77;98795.53;1745756;82;21364;-68
2021/01/13 20:15:26;;;;;;;37.30;20.15;;;;;;;-5.69;75.71;98793.00;1745681;82;20959;-66
2021/01/13 20:17:55;;;;;;;44.42;22.55;;;;;;;-5.68;75.77;98798.05;1745816;82;21889;-66
2021/01/13 20:20:25;;;;;;;42.50;22.82;;;;;;;-5.66;75.71;98792.97;1745648;82;21084;-66
2021/01/13 20:22:55;;;;;;;39.55;22.82;;;;;;;-5.63;75.90;98795.05;1745802;82;21481;-66
2021/01/13 20:25:23;;;;;;;32.15;17.23;;;;;;;-5.59;75.90;98795.81;1745752;81;21206;-66
2021/01/13 20:28:02;;;;;;;36.55;17.20;;;;;;;-5.54;75.92;98793.64;1745761;82;21577;-66
2021/01/13 20:30:32;;;;;;;26.65;15.28;;;;;;;-5.47;75.95;98796.95;1745706;81;21394;-66
2021/01/13 20:33:00;;;;;;;25.23;14.40;;;;;;;-5.42;76.01;98801.12;1745678;82;21003;-66
2021/01/13 20:35:30;;;;;;;25.92;15.23;;;;;;;-5.35;76.12;98804.86;1745743;82;20942;-66
2021/01/13 20:37:59;;;;;;;46.50;27.30;;;;;;;-5.30;76.14;98808.18;1745789;82;22241;-66
2021/01/13 20:40:27;;;;;;;43.25;23.67;;;;;;;-5.26;76.15;98811.93;1745646;82;21007;-67
2021/01/13 20:42:57;;;;;;;40.92;22.45;;;;;;;-5.23;76.21;98813.59;1745716;82;21003;-64
2021/01/13 20:45:27;;;;;;;44.05;23.98;;;;;;;-5.22;76.18;98811.47;1745614;80;21139;-65
2021/01/13 20:47:56;;;;;;;33.65;21.00;;;;;;;-5.21;76.12;98812.72;1745676;82;21050;-65
2021/01/13 20:50:25;;;;;;;34.85;19.85;;;;;;;-5.17;76.12;98811.79;1745678;81;21376;-65
2021/01/13 20:52:54;;;;;;;31.00;18.15;;;;;;;-5.15;76.22;98807.53;1745631;82;20968;-65
2021/01/13 20:55:22;;;;;;;29.37;16.73;;;;;;;-5.12;76.12;98806.23;1745696;82;21538;-65
2021/01/13 20:57:51;;;;;;;25.80;16.23;;;;;;;-5.07;76.24;98813.36;1745721;82;21517;-65
2021/01/13 21:00:27;;;;;;;26.68;16.45;;;;;;;-5.05;76.17;98812.91;1745884;81;21003;-65
2021/01/13 21:02:55;;;;;;;25.50;15.25;;;;;;;-5.04;76.19;98803.17;1745752;82;22269;-65
2021/01/13 21:05:25;;;;;;;28.40;15.08;;;;;;;-5.06;76.30;98805.31;1745622;82;21644;-65
2021/01/13 21:07:54;;;;;;;28.52;16.65;;;;;;;-5.06;76.48;98801.08;1745697;82;20936;-65
2021/01/13 21:10:25;;;;;;;38.58;20.60;;;;;;;-5.03;76.59;98796.39;1745509;82;21094;-66
2021/01/13 21:13:00;;;;;;;47.35;21.60;;;;;;;-5.02;76.62;98797.23;1745697;82;21481;-66
2021/01/13 21:15:28;;;;;;;47.47;21.03;;;;;;;-5.03;76.74;98786.24;1745910;82;22136;-66
2021/01/13 21:17:57;;;;;;;49.38;22.62;;;;;;;-5.04;76.77;98792.17;1745634;82;21588;-66
2021/01/13 21:20:25;;;;;;;62.55;26.87;;;;;;;-5.01;76.84;98789.60;1745646;81;21604;-66
2021/01/13 21:22:54;;;;;;;59.58;26.42;;;;;;;-4.96;76.81;98789.11;1745643;82;21106;-66
2021/01/13 21:25:22;;;;;;;47.43;21.00;;;;;;;-4.91;76.69;98790.31;1745659;82;21470;-66
2021/01/13 21:27:54;;;;;;;38.90;19.40;;;;;;;-4.88;76.52;98787.30;1745653;81;22251;-66
2021/01/13 21:30:23;;;;;;;28.75;15.90;;;;;;;-4.87;76.54;98791.95;1745659;82;21509;-66
2021/01/13 21:32:51;;;;;;;23.98;13.38;;;;;;;-4.85;76.37;98781.34;1745747;82;20964;-66
2021/01/13 21:35:19;;;;;;;23.42;13.45;;;;;;;-4.85;76.28;98788.53;1745662;82;21922;-66
2021/01/13 21:37:48;;;;;;;21.48;12.20;;;;;;;-4.85;76.24;98783.89;1745672;82;21593;-66
2021/01/13 21:40:17;;;;;;;13.65;10.18;;;;;;;-4.85;76.18;98780.92;1745666;81;22158;-66
2021/01/13 21:42:49;;;;;;;18.30;9.83;;;;;;;-4.86;75.84;98779.67;1745525;82;21038;-66
2021/01/13 21:45:18;;;;;;;14.93;11.15;;;;;;;-4.88;75.64;98782.23;1748220;80;21556;-66
2021/01/13 21:47:48;;;;;;;18.70;12.37;;;;;;;-4.96;75.52;98781.49;1787653;80;20963;-66
2021/01/13 21:50:19;;;;;;;16.60;11.35;;;;;;;-5.01;75.59;98783.25;1787797;80;21438;-66
2021/01/13 21:52:48;;;;;;;17.85;11.60;;;;;;;-5.05;75.74;98785.42;1787850;80;22161;-66
2021/01/13 21:55:16;;;;;;;15.70;10.80;;;;;;;-5.09;75.51;98792.66;1787656;80;21050;-66
2021/01/13 21:57:44;;;;;;;16.17;9.40;;;;;;;-5.15;75.36;98791.47;1787824;80;21441;-66
2021/01/13 22:00:14;;;;;;;18.00;11.93;;;;;;;-5.25;75.26;98788.23;1787716;80;21377;-66
2021/01/13 22:02:45;;;;;;;25.35;13.32;;;;;;;-5.36;75.32;98782.45;1787620;80;20975;-64
2021/01/13 22:05:13;;;;;;;21.12;11.60;;;;;;;-5.48;75.55;98792.31;1787699;80;21208;-64
2021/01/13 22:07:42;;;;;;;20.70;12.60;;;;;;;-5.53;75.87;98790.25;1787720;80;21565;-66
2021/01/13 22:10:10;;;;;;;19.50;12.35;;;;;;;-5.56;76.11;98793.25;1787686;80;21477;-65
2021/01/13 22:12:39;;;;;;;17.25;10.80;;;;;;;-5.61;76.05;98788.26;1787639;80;21555;-66
2021/01/13 22:15:08;;;;;;;17.98;10.72;;;;;;;-5.65;75.90;98795.91;1787706;80;21477;-65
2021/01/13 22:17:37;;;;;;;16.00;10.78;;;;;;;-5.72;75.85;98795.98;1787664;80;21377;-65
2021/01/13 22:20:07;;;;;;;15.83;10.03;;;;;;;-5.79;75.92;98800.70;1787622;80;21628;-66